Columbus, Ohio
Traffic Map
Current Weather Conditions
Columbus, Ohio
Few Clouds
Few Clouds
37°
Feels Like: 32°
Wind Chill: 32° Ceiling: Unl
Heat Index: 37° Visibility: 10mi
Dew Point: 31° Wind: 7mph
Humidity: 79% Direction: 360° (N)
Pressure: 29.89in Gusts: 0mph
Raw Report DataKCMH 270851Z 36006KT 10SM FEW070 03/M01 A2989 RMK AO2 SLP124 T00281006 56004
Traffic Incident Summary
Active as of:
Severity:
Category:
InformationThere was an issue retrieving the traffic information for this location. Please try a different location or try again shortly.
Advertisements
Track Severe Weather on mobile